Time;durP1;ratioP1;P1;durP2;ratioP2;P2;SDS_P1;SDS_P2;PMS_P1;PMS_P2;Temp;Humidity;BMP_temperature;BMP_pressure;BME280_temperature;BME280_humidity;BME280_pressure;Samples;Min_cycle;Max_cycle;Signal;HPM_P1;HPM_P2
2023/09/02 00:00:09;;;;;;;9.05;8.75;;;16.80;99.90;;;;;;6247044;22;20218;-85
2023/09/02 00:02:38;;;;;;;9.23;8.93;;;16.70;99.90;;;;;;6228871;22;20206;-85
2023/09/02 00:05:08;;;;;;;9.32;9.02;;;16.70;99.90;;;;;;6226772;23;20198;-85
2023/09/02 00:07:37;;;;;;;9.13;8.82;;;16.70;99.90;;;;;;6227481;23;20203;-85
2023/09/02 00:10:08;;;;;;;9.13;8.82;;;16.60;99.90;;;;;;6227122;23;20226;-85
2023/09/02 00:12:37;;;;;;;9.20;8.90;;;16.60;99.90;;;;;;6227181;22;20199;-85
2023/09/02 00:15:07;;;;;;;9.40;9.10;;;16.60;99.90;;;;;;6227201;23;20209;-85
2023/09/02 00:17:35;;;;;;;9.50;9.20;;;16.50;99.90;;;;;;6227616;23;20203;-85
2023/09/02 00:20:05;;;;;;;9.30;9.00;;;16.50;99.90;;;;;;6227415;23;20207;-85
2023/09/02 00:22:33;;;;;;;9.57;9.27;;;16.50;99.90;;;;;;6226945;22;20190;-85
2023/09/02 00:27:43;;;;;;;9.52;9.23;;;16.50;99.90;;;;;;6226386;23;20218;-85
2023/09/02 00:30:11;;;;;;;9.32;9.02;;;16.40;99.90;;;;;;6227372;23;20195;-85
2023/09/02 00:32:39;;;;;;;9.20;8.90;;;16.40;99.90;;;;;;6227534;22;20195;-85
2023/09/02 00:35:09;;;;;;;9.25;8.95;;;16.30;99.90;;;;;;6226963;23;20195;-85
2023/09/02 00:37:48;;;;;;;9.40;9.10;;;16.30;99.90;;;;;;6228298;23;20219;-85
2023/09/02 00:40:19;;;;;;;9.38;9.07;;;16.20;99.90;;;;;;6227037;23;20257;-85
2023/09/02 00:45:33;;;;;;;9.40;9.10;;;16.20;99.90;;;;;;6229792;23;20293;-85
2023/09/02 00:50:43;;;;;;;9.15;8.85;;;16.20;99.90;;;;;;6227067;23;20201;-85
2023/09/02 00:53:10;;;;;;;9.48;9.18;;;16.20;99.90;;;;;;6227005;22;20198;-85
2023/09/02 00:55:39;;;;;;;9.45;9.15;;;16.20;99.90;;;;;;6226951;23;20195;-85
2023/09/02 01:01:05;;;;;;;9.60;9.30;;;16.20;99.90;;;;;;6226093;23;20214;-85
2023/09/02 01:03:35;;;;;;;9.55;9.25;;;16.20;99.90;;;;;;6227129;22;20190;-85
2023/09/02 01:06:03;;;;;;;9.70;9.40;;;16.10;99.90;;;;;;6228106;23;20226;-85
2023/09/02 01:08:33;;;;;;;9.63;9.32;;;16.10;99.90;;;;;;6227021;23;20250;-85
2023/09/02 01:11:02;;;;;;;9.60;9.30;;;16.10;99.90;;;;;;6226554;23;20199;-84
2023/09/02 01:13:35;;;;;;;9.60;9.30;;;16.10;99.90;;;;;;6227983;22;20218;-85
2023/09/02 01:16:02;;;;;;;9.50;9.20;;;16.10;99.90;;;;;;6228670;23;20190;-85
2023/09/02 01:18:33;;;;;;;9.43;9.13;;;16.10;99.90;;;;;;6228594;23;20195;-85
2023/09/02 01:21:46;;;;;;;9.38;9.07;;;16.00;99.90;;;;;;6227411;23;20709;-85
2023/09/02 01:25:06;;;;;;;9.38;9.07;;;16.10;99.90;;;;;;6227168;22;20195;-85
2023/09/02 01:27:48;;;;;;;9.35;9.05;;;16.00;99.90;;;;;;6134338;23;20197;-85
2023/09/02 01:33:04;;;;;;;9.40;9.10;;;15.80;99.90;;;;;;6225640;22;20274;-85
2023/09/02 01:35:37;;;;;;;9.40;9.10;;;15.70;99.90;;;;;;6227085;23;20193;-85
2023/09/02 01:38:11;;;;;;;9.40;9.10;;;15.70;99.90;;;;;;6227051;23;20245;-85
2023/09/02 01:40:41;;;;;;;9.50;9.20;;;15.60;99.90;;;;;;6226679;23;20263;-85
2023/09/02 01:43:14;;;;;;;9.48;9.18;;;15.60;99.90;;;;;;6226674;22;20199;-85
2023/09/02 01:45:42;;;;;;;9.38;9.07;;;15.60;99.90;;;;;;6226659;23;20440;-85
2023/09/02 01:48:11;;;;;;;9.43;9.13;;;15.50;99.90;;;;;;6227045;23;20195;-86
2023/09/02 01:50:41;;;;;;;9.48;9.18;;;15.60;99.90;;;;;;6227337;23;20245;-85
2023/09/02 01:53:10;;;;;;;9.30;9.00;;;15.50;99.90;;;;;;6226465;22;20292;-85
2023/09/02 01:55:38;;;;;;;9.40;9.10;;;15.50;99.90;;;;;;6226473;23;20199;-85
2023/09/02 01:58:06;;;;;;;9.38;9.07;;;15.50;99.90;;;;;;6226826;23;20195;-85
2023/09/02 02:00:39;;;;;;;9.48;9.18;;;15.50;99.90;;;;;;6226788;23;20211;-85
2023/09/02 02:03:08;;;;;;;9.25;8.95;;;15.50;99.90;;;;;;6226939;22;20274;-85
2023/09/02 02:05:43;;;;;;;9.15;8.85;;;15.60;99.90;;;;;;6227063;23;20199;-85
2023/09/02 02:08:13;;;;;;;9.32;9.02;;;15.50;99.90;;;;;;6227035;23;20190;-85
2023/09/02 02:10:43;;;;;;;9.55;9.25;;;15.50;99.90;;;;;;6227080;23;20199;-84
2023/09/02 02:13:12;;;;;;;9.48;9.18;;;15.50;99.90;;;;;;6226830;22;20298;-85
2023/09/02 02:15:44;;;;;;;9.30;9.00;;;15.50;99.90;;;;;;6226743;23;20207;-85
2023/09/02 02:18:11;;;;;;;9.40;9.10;;;15.50;99.90;;;;;;6229487;23;20187;-85
2023/09/02 02:20:49;;;;;;;9.48;9.18;;;15.50;99.90;;;;;;6226815;23;20210;-85
2023/09/02 02:23:28;;;;;;;9.45;9.15;;;15.50;99.90;;;;;;6232812;22;20261;-85
2023/09/02 02:28:53;;;;;;;9.40;9.10;;;15.50;99.90;;;;;;6248139;22;20191;-84
2023/09/02 02:31:24;;;;;;;9.63;9.32;;;15.50;99.90;;;;;;6249478;22;20171;-84
2023/09/02 02:33:51;;;;;;;9.65;9.35;;;15.40;99.90;;;;;;6249538;22;20193;-84
2023/09/02 02:36:30;;;;;;;9.50;9.20;;;15.40;99.90;;;;;;6249900;22;20230;-84
2023/09/02 02:38:59;;;;;;;9.55;9.25;;;15.40;99.90;;;;;;6241914;22;20190;-85
2023/09/02 02:41:38;;;;;;;9.45;9.15;;;15.40;99.90;;;;;;6228744;23;20255;-85
2023/09/02 02:44:06;;;;;;;9.60;9.30;;;15.40;99.90;;;;;;6226618;22;20211;-85
2023/09/02 02:46:38;;;;;;;9.60;9.30;;;15.40;99.90;;;;;;6227272;23;20207;-84
2023/09/02 02:49:06;;;;;;;9.50;9.20;;;15.40;99.90;;;;;;6226550;23;20214;-85
2023/09/02 02:51:45;;;;;;;9.32;9.02;;;15.30;99.90;;;;;;6226608;23;20209;-86
2023/09/02 02:54:14;;;;;;;9.57;9.27;;;15.30;99.90;;;;;;6226083;22;20205;-85
2023/09/02 02:56:42;;;;;;;9.60;9.30;;;15.30;99.90;;;;;;6226484;23;20278;-85
2023/09/02 02:59:21;;;;;;;9.70;9.40;;;15.30;99.90;;;;;;6226287;23;20233;-85
2023/09/02 03:04:48;;;;;;;9.57;9.27;;;15.20;99.90;;;;;;6226051;22;20202;-84
2023/09/02 03:07:15;;;;;;;9.68;9.38;;;15.20;99.90;;;;;;6226180;23;20199;-85
2023/09/02 03:09:54;;;;;;;9.77;9.48;;;15.20;99.90;;;;;;6226380;23;20210;-85
2023/09/02 03:12:23;;;;;;;9.68;9.38;;;15.20;99.90;;;;;;6226105;22;20269;-85
2023/09/02 03:15:02;;;;;;;9.77;9.48;;;15.20;99.90;;;;;;6226337;23;20213;-85
2023/09/02 03:17:33;;;;;;;9.88;9.57;;;15.10;99.90;;;;;;6225555;23;20214;-85
2023/09/02 03:20:00;;;;;;;9.82;9.52;;;15.10;99.90;;;;;;6226147;23;20237;-85
2023/09/02 03:22:40;;;;;;;9.68;9.38;;;15.10;99.90;;;;;;6226055;23;20225;-85
2023/09/02 03:25:08;;;;;;;9.80;9.50;;;15.00;99.90;;;;;;6226140;23;20194;-85
2023/09/02 03:27:38;;;;;;;9.65;9.35;;;15.00;99.90;;;;;;6225916;23;20195;-85
2023/09/02 03:30:08;;;;;;;9.77;9.48;;;15.00;99.90;;;;;;6246625;22;20190;-85
2023/09/02 03:32:41;;;;;;;9.75;9.45;;;15.00;99.90;;;;;;6236750;22;20194;-85
2023/09/02 03:35:11;;;;;;;9.52;9.23;;;15.00;99.90;;;;;;6226263;23;20250;-85
2023/09/02 03:37:38;;;;;;;9.85;9.55;;;14.90;99.90;;;;;;6225774;23;20195;-85
2023/09/02 03:40:09;;;;;;;9.88;9.57;;;14.90;99.90;;;;;;6226431;23;20202;-85
2023/09/02 03:42:37;;;;;;;9.90;9.60;;;14.90;99.90;;;;;;6226955;22;20194;-85
2023/09/02 03:45:05;;;;;;;9.93;9.63;;;14.90;99.90;;;;;;6227538;23;20232;-85
2023/09/02 03:47:34;;;;;;;9.80;9.50;;;14.90;99.90;;;;;;6227241;23;20202;-85
2023/09/02 03:50:14;;;;;;;9.98;9.68;;;14.90;99.90;;;;;;6226795;23;20206;-85
2023/09/02 03:52:42;;;;;;;10.00;9.70;;;14.90;99.90;;;;;;6227981;22;20217;-85
2023/09/02 03:55:12;;;;;;;10.07;9.77;;;14.80;99.90;;;;;;6226902;23;20195;-85
2023/09/02 03:57:51;;;;;;;9.93;9.63;;;14.80;99.90;;;;;;6227519;23;20202;-85
2023/09/02 04:00:19;;;;;;;10.00;9.70;;;14.70;99.90;;;;;;6227195;23;20190;-84
2023/09/02 04:02:58;;;;;;;9.68;9.38;;;14.70;99.90;;;;;;6226229;22;20202;-85
2023/09/02 04:08:23;;;;;;;9.70;9.40;;;14.70;99.90;;;;;;6226525;23;20199;-85
2023/09/02 04:10:54;;;;;;;9.70;9.40;;;14.70;99.90;;;;;;6226992;23;20301;-85
2023/09/02 04:13:24;;;;;;;9.60;9.30;;;14.70;99.90;;;;;;6230365;22;20230;-85
2023/09/02 04:15:53;;;;;;;10.07;9.77;;;14.70;99.90;;;;;;6234076;23;20223;-85
2023/09/02 04:18:21;;;;;;;10.10;9.80;;;14.60;99.90;;;;;;6234647;23;20203;-85
2023/09/02 04:23:47;;;;;;;10.20;9.90;;;14.60;99.90;;;;;;6226856;22;20249;-85
2023/09/02 04:26:15;;;;;;;10.38;10.07;;;14.50;99.90;;;;;;6225382;23;20202;-85
2023/09/02 04:28:45;;;;;;;10.37;10.07;;;14.50;99.90;;;;;;6226999;23;20191;-85
2023/09/02 04:31:14;;;;;;;10.30;10.00;;;14.50;99.90;;;;;;6226738;23;20257;-85
2023/09/02 04:33:53;;;;;;;9.97;9.67;;;14.50;99.90;;;;;;6226622;22;20198;-85
2023/09/02 04:39:18;;;;;;;9.97;9.67;;;14.50;99.90;;;;;;6227029;23;20206;-85
2023/09/02 04:41:47;;;;;;;10.10;9.80;;;14.50;99.90;;;;;;6226457;23;20203;-85
2023/09/02 04:44:17;;;;;;;9.88;9.57;;;14.40;99.90;;;;;;6222317;22;20261;-75
2023/09/02 04:46:44;;;;;;;9.90;9.60;;;14.40;99.90;;;;;;6226106;23;20218;-76
2023/09/02 04:49:11;;;;;;;9.90;9.60;;;14.40;99.90;;;;;;6225172;23;20258;-76
2023/09/02 04:51:40;;;;;;;9.90;9.60;;;14.40;99.90;;;;;;6225294;23;20202;-76
2023/09/02 04:54:07;;;;;;;9.70;9.40;;;14.40;99.90;;;;;;6225479;22;20199;-75
2023/09/02 04:56:34;;;;;;;9.80;9.50;;;14.30;99.90;;;;;;6230775;22;20195;-76
2023/09/02 04:59:01;;;;;;;9.73;9.43;;;14.30;99.90;;;;;;6225429;22;20206;-76
2023/09/02 05:01:29;;;;;;;9.80;9.50;;;14.30;99.90;;;;;;6225989;23;20217;-78
2023/09/02 05:03:56;;;;;;;9.80;9.50;;;14.30;99.90;;;;;;6224483;22;20202;-76
2023/09/02 05:06:23;;;;;;;9.60;9.30;;;14.40;99.90;;;;;;6225683;22;20191;-76
2023/09/02 05:08:54;;;;;;;9.80;9.50;;;14.40;99.90;;;;;;6227397;23;20213;-75
2023/09/02 05:11:21;;;;;;;9.70;9.40;;;14.40;99.90;;;;;;6237284;23;20195;-76
2023/09/02 05:13:48;;;;;;;9.55;9.25;;;14.40;99.90;;;;;;6230460;22;20206;-76
2023/09/02 05:16:15;;;;;;;9.60;9.30;;;14.40;99.90;;;;;;6228774;22;20195;-76
2023/09/02 05:18:42;;;;;;;9.37;9.07;;;14.40;99.90;;;;;;6226018;22;20282;-76
2023/09/02 05:21:09;;;;;;;9.50;9.20;;;14.40;99.90;;;;;;6224877;22;20198;-76
2023/09/02 05:23:36;;;;;;;9.32;9.02;;;14.50;99.90;;;;;;6224983;22;20199;-76
2023/09/02 05:26:05;;;;;;;9.40;9.10;;;14.50;99.90;;;;;;6224721;23;20226;-76
2023/09/02 05:28:31;;;;;;;9.50;9.20;;;14.50;99.90;;;;;;6225951;22;20205;-77
2023/09/02 05:30:58;;;;;;;9.43;9.13;;;14.50;99.90;;;;;;6225492;23;20203;-77
2023/09/02 05:33:25;;;;;;;9.32;9.02;;;14.60;99.90;;;;;;6226474;22;20228;-77
2023/09/02 05:35:53;;;;;;;9.20;8.90;;;14.70;99.90;;;;;;6226242;22;20199;-77
2023/09/02 05:38:19;;;;;;;9.30;9.00;;;14.70;99.90;;;;;;6226359;22;20257;-78
2023/09/02 05:40:46;;;;;;;9.40;9.10;;;14.70;99.90;;;;;;6225369;23;20207;-77
2023/09/02 05:43:14;;;;;;;9.50;9.20;;;14.70;99.90;;;;;;6225082;22;20215;-76
2023/09/02 05:45:41;;;;;;;9.20;8.90;;;14.70;99.90;;;;;;6225686;23;20191;-77
2023/09/02 05:48:08;;;;;;;9.30;9.00;;;14.80;99.90;;;;;;6225720;23;20290;-77
2023/09/02 05:50:35;;;;;;;9.25;8.95;;;14.80;99.90;;;;;;6225896;23;20214;-77
2023/09/02 05:53:02;;;;;;;9.18;8.88;;;14.90;99.90;;;;;;6224450;22;20277;-75
2023/09/02 05:55:31;;;;;;;8.68;8.45;;;15.00;99.90;;;;;;6224047;23;20215;-76
2023/09/02 05:57:57;;;;;;;8.63;8.43;;;15.00;99.90;;;;;;6224503;23;20206;-76
2023/09/02 06:00:25;;;;;;;8.98;8.68;;;15.10;99.90;;;;;;6234168;23;20199;-75
2023/09/02 06:02:52;;;;;;;9.10;8.80;;;15.10;99.90;;;;;;6223692;22;20213;-76
2023/09/02 06:05:19;;;;;;;8.68;8.48;;;15.20;99.90;;;;;;6224960;23;20187;-76
2023/09/02 06:07:46;;;;;;;8.65;8.45;;;15.30;99.90;;;;;;6224863;23;20211;-77
2023/09/02 06:10:13;;;;;;;8.70;8.50;;;15.40;99.90;;;;;;6225458;23;20233;-76
2023/09/02 06:12:40;;;;;;;8.95;8.65;;;15.50;99.90;;;;;;6224764;22;20250;-77
2023/09/02 06:15:08;;;;;;;9.05;8.75;;;15.60;99.90;;;;;;6225267;23;20694;-76
2023/09/02 06:17:37;;;;;;;8.77;8.57;;;15.80;99.90;;;;;;6224795;23;20211;-76
2023/09/02 06:20:04;;;;;;;8.52;8.32;;;15.90;99.90;;;;;;6224274;23;20661;-76
2023/09/02 06:22:31;;;;;;;8.73;8.52;;;16.00;99.90;;;;;;6224555;23;20211;-77
2023/09/02 06:24:59;;;;;;;8.75;8.55;;;16.10;99.90;;;;;;6225161;22;20216;-76
2023/09/02 06:27:26;;;;;;;8.70;8.50;;;16.20;99.90;;;;;;6225379;23;20306;-76
2023/09/02 06:29:53;;;;;;;8.40;8.20;;;16.30;99.90;;;;;;6225157;23;20191;-77
2023/09/02 06:32:20;;;;;;;8.13;7.93;;;16.40;99.90;;;;;;6224054;23;20597;-76
2023/09/02 06:34:50;;;;;;;8.40;8.20;;;16.50;99.90;;;;;;6225012;22;20218;-76
2023/09/02 06:37:17;;;;;;;8.57;8.38;;;16.60;99.90;;;;;;6235819;23;20213;-76
2023/09/02 06:39:43;;;;;;;8.70;8.50;;;16.70;99.90;;;;;;6226064;23;20231;-75
2023/09/02 06:42:10;;;;;;;8.80;8.60;;;16.80;99.90;;;;;;6230137;23;20210;-77
2023/09/02 06:44:38;;;;;;;9.00;8.70;;;16.80;99.90;;;;;;6235128;22;20196;-76
2023/09/02 06:47:05;;;;;;;9.40;9.10;;;17.00;99.90;;;;;;6226212;23;20206;-76
2023/09/02 06:49:33;;;;;;;9.20;8.90;;;17.10;99.90;;;;;;6228849;23;20195;-74
2023/09/02 06:52:01;;;;;;;9.07;8.77;;;17.20;99.90;;;;;;6241097;23;20205;-75
2023/09/02 06:54:28;;;;;;;9.57;9.27;;;17.30;99.90;;;;;;6226536;22;20294;-76
2023/09/02 06:56:55;;;;;;;9.50;9.20;;;17.40;99.90;;;;;;6225153;23;20229;-76
2023/09/02 06:59:23;;;;;;;9.60;9.30;;;17.40;99.90;;;;;;6224584;23;20191;-76
2023/09/02 07:01:50;;;;;;;9.60;9.30;;;17.50;99.90;;;;;;6223968;23;20210;-76
2023/09/02 07:04:17;;;;;;;9.85;9.55;;;17.70;99.90;;;;;;6223846;22;20198;-76
2023/09/02 07:06:44;;;;;;;10.00;9.70;;;17.80;99.90;;;;;;6223954;23;20286;-76
2023/09/02 07:09:12;;;;;;;10.10;9.80;;;17.90;99.90;;;;;;6223993;23;20622;-75
2023/09/02 07:11:39;;;;;;;10.15;9.85;;;18.10;99.90;;;;;;6224173;23;20230;-76
2023/09/02 07:14:06;;;;;;;9.98;9.68;;;18.10;99.90;;;;;;6226126;22;20237;-77
2023/09/02 07:16:33;;;;;;;10.02;9.73;;;18.20;99.90;;;;;;6227970;23;20220;-74
2023/09/02 07:19:03;;;;;;;10.23;9.93;;;18.30;99.90;;;;;;6228468;23;20274;-76
2023/09/02 07:21:30;;;;;;;10.15;9.85;;;18.50;99.90;;;;;;6226799;23;20213;-76
2023/09/02 07:23:57;;;;;;;10.30;10.00;;;18.40;99.90;;;;;;6227079;22;20210;-76
2023/09/02 07:26:27;;;;;;;10.50;10.20;;;18.50;99.90;;;;;;6227553;23;20249;-76
2023/09/02 07:28:54;;;;;;;10.45;10.15;;;18.60;99.90;;;;;;6229487;23;20187;-76
2023/09/02 07:31:21;;;;;;;10.40;10.10;;;18.60;99.90;;;;;;6228157;23;20198;-76
2023/09/02 07:33:48;;;;;;;10.32;10.02;;;18.60;99.90;;;;;;6228410;22;20206;-76
2023/09/02 07:36:15;;;;;;;10.45;10.15;;;18.70;99.90;;;;;;6227674;23;20202;-76
2023/09/02 07:38:44;;;;;;;10.38;10.07;;;18.80;99.90;;;;;;6227294;23;20203;-76
2023/09/02 07:41:11;;;;;;;10.50;10.20;;;19.00;99.90;;;;;;6233310;23;20206;-76
2023/09/02 07:43:39;;;;;;;10.30;10.00;;;19.20;99.90;;;;;;6230262;22;20214;-76
2023/09/02 07:46:06;;;;;;;10.30;10.00;;;19.20;99.90;;;;;;6237805;23;21042;-76
2023/09/02 07:48:33;;;;;;;10.23;9.93;;;19.20;99.90;;;;;;6236092;23;20245;-76
2023/09/02 07:51:00;;;;;;;10.50;10.20;;;19.40;99.90;;;;;;6230388;23;20290;-76
2023/09/02 07:53:28;;;;;;;10.40;10.10;;;19.50;99.90;;;;;;6229715;22;20217;-76
2023/09/02 07:55:55;;;;;;;10.48;10.18;;;19.40;99.90;;;;;;6229243;23;20202;-75
2023/09/02 07:58:22;;;;;;;10.50;10.20;;;19.60;99.90;;;;;;6229672;23;20206;-77
2023/09/02 08:00:51;;;;;;;10.60;10.30;;;19.80;99.90;;;;;;6227601;23;20278;-76
2023/09/02 08:03:17;;;;;;;10.50;10.20;;;20.00;99.90;;;;;;6226814;22;20222;-76
2023/09/02 08:05:44;;;;;;;10.35;10.05;;;19.90;99.90;;;;;;6227963;23;20211;-76
2023/09/02 08:08:11;;;;;;;10.73;10.43;;;19.80;99.90;;;;;;6228215;23;20205;-76
2023/09/02 08:10:39;;;;;;;10.70;10.40;;;20.00;99.90;;;;;;6227411;23;20195;-77
2023/09/02 08:13:06;;;;;;;10.75;10.45;;;20.10;99.90;;;;;;6229943;22;20261;-77
2023/09/02 08:15:33;;;;;;;10.30;10.00;;;20.30;99.90;;;;;;6230132;23;20213;-76
2023/09/02 08:18:01;;;;;;;10.68;10.38;;;20.40;99.90;;;;;;6226834;23;20209;-76
2023/09/02 08:20:29;;;;;;;10.77;10.48;;;20.50;99.90;;;;;;6229452;22;20195;-76
2023/09/02 08:22:56;;;;;;;10.55;10.25;;;20.60;99.90;;;;;;6226224;22;20203;-76
2023/09/02 08:25:23;;;;;;;10.80;10.50;;;20.60;99.90;;;;;;6227116;23;20202;-75
2023/09/02 08:27:51;;;;;;;10.90;10.60;;;20.60;99.90;;;;;;6237489;23;20282;-77
2023/09/02 08:30:18;;;;;;;10.70;10.40;;;20.60;99.90;;;;;;6241276;23;20198;-77
2023/09/02 08:32:45;;;;;;;10.98;10.68;;;20.70;99.90;;;;;;6237428;22;20199;-75
2023/09/02 08:35:13;;;;;;;10.90;10.60;;;20.60;99.90;;;;;;6238811;23;20217;-76
2023/09/02 08:37:41;;;;;;;11.05;10.75;;;20.90;99.90;;;;;;6232943;23;20194;-76
2023/09/02 08:40:09;;;;;;;11.18;10.77;;;21.00;99.90;;;;;;6229911;23;20255;-76
2023/09/02 08:42:36;;;;;;;11.02;10.73;;;21.20;99.90;;;;;;6228341;23;20217;-76
2023/09/02 08:45:09;;;;;;;10.90;10.60;;;21.20;99.90;;;;;;6229107;23;20271;-77
2023/09/02 08:47:39;;;;;;;11.00;10.70;;;21.40;99.90;;;;;;6228144;23;20198;-76
2023/09/02 08:50:09;;;;;;;10.85;10.55;;;21.60;99.90;;;;;;6227585;23;20667;-78
2023/09/02 08:52:40;;;;;;;11.05;10.75;;;21.80;99.90;;;;;;6227945;23;20210;-78
2023/09/02 08:55:09;;;;;;;10.90;10.60;;;22.00;99.90;;;;;;6228945;23;20190;-75
2023/09/02 08:57:38;;;;;;;10.60;10.30;;;22.10;99.90;;;;;;6228482;23;20203;-75
2023/09/02 09:00:07;;;;;;;11.00;10.70;;;22.40;99.90;;;;;;6227878;23;20269;-75
2023/09/02 09:02:37;;;;;;;10.98;10.68;;;22.40;99.90;;;;;;6227741;23;20238;-75
2023/09/02 09:05:06;;;;;;;10.85;10.55;;;22.60;99.90;;;;;;6226841;23;20202;-76
2023/09/02 09:07:33;;;;;;;11.00;10.70;;;23.00;99.90;;;;;;6225321;23;20250;-76
2023/09/02 09:10:03;;;;;;;10.85;10.55;;;23.00;99.90;;;;;;6226004;23;20306;-76
2023/09/02 09:12:33;;;;;;;10.95;10.65;;;23.10;99.90;;;;;;6225817;23;20353;-75
2023/09/02 09:15:03;;;;;;;10.93;10.63;;;23.10;99.90;;;;;;6225760;22;20257;-75
2023/09/02 09:17:31;;;;;;;10.80;10.50;;;23.00;99.90;;;;;;6226578;23;20202;-75
2023/09/02 09:20:00;;;;;;;10.70;10.40;;;23.10;99.90;;;;;;6226231;23;20199;-76
2023/09/02 09:22:27;;;;;;;10.95;10.65;;;23.10;99.90;;;;;;6224501;23;20238;-76
2023/09/02 09:24:54;;;;;;;10.90;10.60;;;23.30;99.90;;;;;;6225234;22;20207;-76
2023/09/02 09:27:22;;;;;;;10.90;10.60;;;23.20;99.90;;;;;;6233052;23;20206;-75
2023/09/02 09:29:49;;;;;;;11.02;10.73;;;23.40;99.90;;;;;;6227280;23;20207;-77
2023/09/02 09:32:22;;;;;;;10.98;10.68;;;23.60;99.90;;;;;;6224350;23;20266;-76
2023/09/02 09:34:49;;;;;;;10.90;10.60;;;23.80;99.90;;;;;;6225835;23;20207;-76
2023/09/02 09:37:16;;;;;;;10.93;10.63;;;24.10;99.90;;;;;;6225094;23;20226;-76
2023/09/02 09:39:46;;;;;;;11.00;10.70;;;24.30;99.90;;;;;;6225600;23;20203;-79
2023/09/02 09:42:14;;;;;;;10.80;10.50;;;24.50;99.90;;;;;;6226754;23;20195;-77
2023/09/02 09:44:57;;;;;;;10.80;10.50;;;24.40;99.90;;;;;;6227974;22;20301;-77
2023/09/02 09:47:25;;;;;;;11.02;10.73;;;24.70;99.90;;;;;;6226738;23;20282;-77
2023/09/02 09:49:53;;;;;;;11.07;10.77;;;24.80;99.90;;;;;;6228728;23;20209;-77
2023/09/02 09:52:21;;;;;;;10.93;10.63;;;24.90;99.90;;;;;;6229254;23;20201;-77
2023/09/02 09:54:50;;;;;;;10.98;10.68;;;24.90;99.90;;;;;;6226121;22;20213;-76
2023/09/02 09:57:32;;;;;;;11.10;10.80;;;25.00;99.90;;;;;;6226371;23;20206;-77
2023/09/02 10:00:01;;;;;;;10.93;10.63;;;25.20;99.90;;;;;;6226597;23;20194;-77
2023/09/02 10:02:28;;;;;;;10.95;10.65;;;25.20;99.90;;;;;;6226621;23;21227;-76
2023/09/02 10:04:57;;;;;;;11.15;10.85;;;25.10;99.90;;;;;;6226333;22;20988;-76
2023/09/02 10:07:27;;;;;;;11.10;10.80;;;24.70;99.90;;;;;;6228158;23;20217;-77
2023/09/02 10:09:56;;;;;;;10.90;10.60;;;24.80;99.90;;;;;;6226138;23;20191;-77
2023/09/02 10:12:23;;;;;;;10.70;10.40;;;24.80;99.90;;;;;;6226516;23;20195;-77
2023/09/02 10:14:51;;;;;;;10.73;10.43;;;24.80;99.90;;;;;;6228251;23;20234;-77
2023/09/02 10:17:21;;;;;;;10.63;10.32;;;24.80;99.90;;;;;;6227202;23;20251;-77
2023/09/02 10:19:48;;;;;;;10.80;10.50;;;25.00;99.90;;;;;;6236244;23;20254;-76
2023/09/02 10:22:18;;;;;;;10.60;10.30;;;25.10;99.90;;;;;;6233943;23;20205;-77
2023/09/02 10:24:52;;;;;;;10.63;10.32;;;25.30;99.90;;;;;;6232079;22;20290;-77
2023/09/02 10:27:24;;;;;;;10.55;10.25;;;25.40;99.90;;;;;;6232097;23;20246;-76
2023/09/02 10:29:56;;;;;;;11.00;10.70;;;25.50;99.90;;;;;;6232017;23;20194;-77
2023/09/02 10:32:34;;;;;;;10.95;10.65;;;25.90;99.90;;;;;;6229224;23;20250;-76
2023/09/02 10:35:10;;;;;;;10.68;10.38;;;26.10;99.90;;;;;;6227109;22;20250;-76
2023/09/02 10:37:50;;;;;;;10.70;10.40;;;26.50;99.90;;;;;;6226613;23;20281;-76
2023/09/02 10:40:23;;;;;;;10.80;10.50;;;26.70;99.90;;;;;;6226008;23;20269;-76
2023/09/02 10:42:51;;;;;;;10.57;10.27;;;26.80;99.90;;;;;;6234189;23;20202;-76
2023/09/02 11:16:18;;;;;;;11.00;10.70;;;26.90;99.90;;;;;;5156241;27;20523;-84
2023/09/02 11:22:56;;;;;;;10.70;10.40;;;29.00;99.90;;;;;;5093844;28;20233;-84
2023/09/02 11:26:44;;;;;;;;;;;;;;;;;;;;;
2023/09/02 11:29:41;;;;;;;10.70;10.40;;;29.10;99.90;;;;;;5137394;27;20224;-84
2023/09/02 11:32:33;;;;;;;10.65;10.35;;;29.00;99.90;;;;;;5137656;27;21100;-84
2023/09/02 11:35:48;;;;;;;10.52;10.23;;;29.20;99.90;;;;;;5137247;27;20231;-83
2023/09/02 11:39:03;;;;;;;;;;;;;;;;;;;;;
2023/09/02 11:56:39;;;;;;;10.38;10.07;;;29.20;99.90;;;;;;5051823;28;20231;-85
2023/09/02 16:18:49;;;;;;;10.20;9.90;;;31.80;99.90;;;;;;4920295;29;20231;-86
2023/09/02 16:32:27;;;;;;;10.23;9.93;;;31.40;99.90;;;;;;5081734;28;20312;-86
2023/09/02 16:35:54;;;;;;;10.40;10.10;;;31.50;99.90;;;;;;5081113;28;20237;-86
2023/09/02 16:39:01;;;;;;;10.50;10.20;;;30.70;99.90;;;;;;5081065;28;20290;-86
2023/09/02 16:44:49;;;;;;;10.23;9.93;;;30.40;99.90;;;;;;5131123;22;20237;-77
2023/09/02 16:47:23;;;;;;;10.30;10.00;;;29.70;99.90;;;;;;5081176;28;20294;-78
2023/09/02 16:49:50;;;;;;;10.48;10.18;;;29.60;99.90;;;;;;5080453;28;20234;-78
2023/09/02 16:52:19;;;;;;;10.13;9.82;;;29.30;99.90;;;;;;5079598;28;20241;-78
2023/09/02 16:54:48;;;;;;;10.07;9.77;;;29.00;99.90;;;;;;5079302;28;20234;-78
2023/09/02 16:57:16;;;;;;;10.30;10.00;;;28.80;99.90;;;;;;5080021;28;20230;-78
2023/09/02 16:59:43;;;;;;;10.50;10.20;;;28.50;99.90;;;;;;5079878;28;20313;-79
2023/09/02 17:02:19;;;;;;;10.20;9.90;;;28.30;99.90;;;;;;5078603;28;20234;-78
2023/09/02 17:04:46;;;;;;;10.20;9.90;;;27.80;99.90;;;;;;5079667;28;20218;-78
2023/09/02 17:07:14;;;;;;;10.10;9.80;;;27.40;99.90;;;;;;5079290;28;20249;-77
2023/09/02 17:09:41;;;;;;;10.32;10.02;;;27.30;99.90;;;;;;5079959;28;20240;-77
2023/09/02 17:12:09;;;;;;;10.45;10.15;;;27.10;99.90;;;;;;5078832;28;20234;-81
2023/09/02 17:14:36;;;;;;;10.50;10.20;;;27.00;99.90;;;;;;5077643;28;20238;-77
2023/09/02 17:17:07;;;;;;;10.45;10.15;;;26.80;99.90;;;;;;5078417;28;20236;-77
2023/09/02 17:19:35;;;;;;;10.63;10.32;;;26.70;99.90;;;;;;5086360;28;20218;-77
2023/09/02 17:22:02;;;;;;;10.60;10.30;;;26.40;99.90;;;;;;5080202;28;20226;-78
2023/09/02 17:24:30;;;;;;;10.57;10.27;;;26.40;99.90;;;;;;5078638;28;20233;-78
2023/09/02 17:26:57;;;;;;;10.70;10.40;;;26.30;99.90;;;;;;5079664;28;20260;-77
2023/09/02 17:29:26;;;;;;;10.63;10.32;;;26.10;99.90;;;;;;5086895;28;20244;-78
2023/09/02 17:31:56;;;;;;;10.70;10.40;;;26.00;99.90;;;;;;5080182;28;20221;-78
2023/09/02 17:34:23;;;;;;;10.50;10.20;;;25.90;99.90;;;;;;5078613;28;20348;-78
2023/09/02 17:36:50;;;;;;;10.40;10.10;;;25.70;99.90;;;;;;5078147;28;20256;-78
2023/09/02 17:39:17;;;;;;;10.20;9.90;;;25.60;99.90;;;;;;5078203;28;20234;-77
2023/09/02 17:41:44;;;;;;;10.23;9.93;;;25.50;99.90;;;;;;5078283;28;20392;-78
2023/09/02 17:44:11;;;;;;;10.27;9.98;;;25.30;99.90;;;;;;5078019;28;20222;-77
2023/09/02 17:46:39;;;;;;;10.32;10.02;;;25.20;99.90;;;;;;5078049;28;20222;-78
2023/09/02 17:49:06;;;;;;;10.60;10.30;;;25.10;99.90;;;;;;5078341;28;20242;-77
2023/09/02 17:51:33;;;;;;;10.50;10.20;;;25.00;99.90;;;;;;5083199;28;20332;-78
2023/09/02 17:54:00;;;;;;;10.80;10.50;;;24.90;99.90;;;;;;5079237;28;20333;-77
2023/09/02 17:56:27;;;;;;;10.70;10.40;;;24.80;99.90;;;;;;5080010;28;20232;-78
2023/09/02 17:58:54;;;;;;;10.48;10.18;;;24.70;99.90;;;;;;5078681;28;20230;-78
2023/09/02 18:01:21;;;;;;;10.77;10.48;;;24.50;99.90;;;;;;5078170;28;20229;-78
2023/09/02 18:03:50;;;;;;;10.55;10.25;;;24.50;99.90;;;;;;5077699;28;20232;-78
2023/09/02 18:06:17;;;;;;;10.80;10.50;;;24.40;99.90;;;;;;5077698;28;20226;-78
2023/09/02 18:08:44;;;;;;;10.68;10.38;;;24.30;99.90;;;;;;5078085;28;20280;-78
2023/09/02 18:11:11;;;;;;;10.70;10.40;;;24.20;99.90;;;;;;5078261;28;20238;-78
2023/09/02 18:13:38;;;;;;;10.43;10.13;;;24.10;99.90;;;;;;5077132;28;20241;-79
2023/09/02 18:16:05;;;;;;;10.63;10.32;;;24.00;99.90;;;;;;5078282;28;20232;-78
2023/09/02 18:18:32;;;;;;;9.93;9.63;;;24.00;99.90;;;;;;5078367;28;20230;-78
2023/09/02 18:21:01;;;;;;;10.05;9.75;;;23.90;99.90;;;;;;5077820;28;20230;-78
2023/09/02 18:23:28;;;;;;;10.20;9.90;;;23.80;99.90;;;;;;5086145;28;20220;-77
2023/09/02 18:25:55;;;;;;;10.20;9.90;;;23.70;99.90;;;;;;5085246;28;20242;-77
2023/09/02 18:28:22;;;;;;;10.30;10.00;;;23.70;99.90;;;;;;5084066;28;20261;-79
2023/09/02 18:30:49;;;;;;;10.23;9.93;;;23.60;99.90;;;;;;5089263;28;20269;-78
2023/09/02 18:33:16;;;;;;;10.20;9.90;;;23.50;99.90;;;;;;5087113;28;20227;-78
2023/09/02 18:35:43;;;;;;;10.32;10.02;;;23.40;99.90;;;;;;5085933;28;20238;-78
2023/09/02 18:38:11;;;;;;;10.57;10.27;;;23.40;99.90;;;;;;5085014;28;20309;-78
2023/09/02 18:40:38;;;;;;;10.50;10.20;;;23.20;99.90;;;;;;5084459;28;20237;-77
2023/09/02 18:43:05;;;;;;;10.40;10.10;;;23.20;99.90;;;;;;5084289;28;20689;-78
2023/09/02 18:45:32;;;;;;;10.45;10.15;;;23.10;99.90;;;;;;5083284;28;20245;-79
2023/09/02 18:48:01;;;;;;;10.77;10.48;;;23.00;99.90;;;;;;5084028;28;20234;-78